^^
Cohasset Weather Station Historical Data
Daily Summary for April 18, 2019 Units:  Both    English   Metric
Daily Weekly Monthly Yearly Custom
  High: Low: Average:
Temperature: 80.8 °F /  27.1 °C 50.5 °F /  10.3 °C 60.9 °F /  16.1 °C
Dew Point: 56.7 °F /  13.7 °C 41.4 °F /  5.2 °C 49.1 °F /  9.5 °C
Humidity: 82% 36% 67%
Wind Speed: 5.8mph /  9.3km/h - 0.1mph /  0.2km/h
Wind Gust: 3.0mph /  4.8km/h - -
Wind- - West
Pressure: 30.23 in /  1023.6 hPa 30.11 in /  1019.5 hPa -
Precipitation: 0.01 in /  0.25 mm    
Historical Graphs
 
 
Tabular Data for April 18, 2019
Time Temperature Dew Point Pressure Wind Wind Speed Wind Gust Humidity Rainfall Rate (Hourly) solar
00:04 52.9 °F /  11.6 °C 46.2 °F /  7.9 °C 30.23in /  1023.6hPa Calm     78% 0.00in /  0mm WeatherDisplay:10.37 W/m2
00:09 52.9 °F /  11.6 °C 46.2 °F /  7.9 °C 30.23in /  1023.6hPa Calm     78% 0.00in /  0mm WeatherDisplay:10.37 W/m2
00:14 52.9 °F /  11.6 °C 45.5 °F /  7.5 °C 30.23in /  1023.6hPa Calm     76% 0.00in /  0mm WeatherDisplay:10.37 W/m2
00:19 52.9 °F /  11.6 °C 45.5 °F /  7.5 °C 30.23in /  1023.6hPa Calm     76% 0.00in /  0mm WeatherDisplay:10.37 W/m2
00:24 52.9 °F /  11.6 °C 45.2 °F /  7.3 °C 30.23in /  1023.6hPa Calm     75% 0.00in /  0mm WeatherDisplay:10.37 W/m2
00:29 52.9 °F /  11.6 °C 45.2 °F /  7.3 °C 30.23in /  1023.6hPa Calm     75% 0.00in /  0mm WeatherDisplay:10.37 W/m2
00:34 52.7 °F /  11.5 °C 44.6 °F /  7 °C 30.23in /  1023.6hPa Calm     74% 0.00in /  0mm WeatherDisplay:10.37 W/m2
00:39 52.7 °F /  11.5 °C 44.3 °F /  6.8 °C 30.23in /  1023.6hPa Calm     73% 0.00in /  0mm WeatherDisplay:10.37 W/m2
00:44 52.7 °F /  11.5 °C 44.3 °F /  6.8 °C 30.23in /  1023.6hPa Calm     73% 0.00in /  0mm WeatherDisplay:10.37 W/m2
00:49 52.7 °F /  11.5 °C 43.9 °F /  6.6 °C 30.23in /  1023.6hPa Calm     72% 0.00in /  0mm WeatherDisplay:10.37 W/m2
00:54 52.7 °F /  11.5 °C 43.9 °F /  6.6 °C 30.23in /  1023.6hPa Calm     72% 0.00in /  0mm WeatherDisplay:10.37 W/m2
00:59 52.7 °F /  11.5 °C 43.9 °F /  6.6 °C 30.23in /  1023.6hPa Calm     72% 0.00in /  0mm WeatherDisplay:10.37 W/m2
01:04 52.7 °F /  11.5 °C 43.9 °F /  6.6 °C 30.23in /  1023.6hPa Calm     72% 0.00in /  0mm WeatherDisplay:10.37 W/m2
01:09 52.7 °F /  11.5 °C 43.9 °F /  6.6 °C 30.23in /  1023.6hPa Calm     72% 0.00in /  0mm WeatherDisplay:10.37 W/m2
01:14 52.7 °F /  11.5 °C 43.9 °F /  6.6 °C 30.23in /  1023.6hPa Calm     72% 0.00in /  0mm WeatherDisplay:10.37 W/m2
01:19 52.7 °F /  11.5 °C 43.6 °F /  6.4 °C 30.23in /  1023.6hPa Calm     71% 0.00in /  0mm WeatherDisplay:10.37 W/m2
01:24 52.7 °F /  11.5 °C 43.9 °F /  6.6 °C 30.23in /  1023.6hPa Calm     72% 0.00in /  0mm WeatherDisplay:10.37 W/m2
01:29 52.5 °F /  11.4 °C 43.7 °F /  6.5 °C 30.23in /  1023.6hPa Calm     72% 0.00in /  0mm WeatherDisplay:10.37 W/m2
01:34 52.5 °F /  11.4 °C 43.7 °F /  6.5 °C 30.23in /  1023.6hPa Calm     72% 0.00in /  0mm WeatherDisplay:10.37 W/m2
01:39 52.2 °F /  11.2 °C 43.8 °F /  6.6 °C 30.23in /  1023.6hPa Calm     73% 0.00in /  0mm WeatherDisplay:10.37 W/m2
01:44 52.2 °F /  11.2 °C 43.8 °F /  6.6 °C 30.22in /  1023.2hPa Calm     73% 0.00in /  0mm WeatherDisplay:10.37 W/m2
01:49 52.2 °F /  11.2 °C 43.8 °F /  6.6 °C 30.22in /  1023.2hPa Calm     73% 0.00in /  0mm WeatherDisplay:10.37 W/m2
01:54 52.2 °F /  11.2 °C 43.8 °F /  6.6 °C 30.22in /  1023.2hPa Calm     73% 0.00in /  0mm WeatherDisplay:10.37 W/m2
01:59 52.2 °F /  11.2 °C 43.8 °F /  6.6 °C 30.22in /  1023.2hPa Calm     73% 0.00in /  0mm WeatherDisplay:10.37 W/m2
02:04 52.2 °F /  11.2 °C 43.8 °F /  6.6 °C 30.22in /  1023.2hPa Calm     73% 0.00in /  0mm WeatherDisplay:10.37 W/m2
02:09 52.2 °F /  11.2 °C 43.8 °F /  6.6 °C 30.22in /  1023.2hPa Calm     73% 0.00in /  0mm WeatherDisplay:10.37 W/m2
02:14 52.0 °F /  11.1 °C 43.6 °F /  6.4 °C 30.22in /  1023.2hPa Calm     73% 0.00in /  0mm WeatherDisplay:10.37 W/m2
02:19 52.0 °F /  11.1 °C 43.3 °F /  6.3 °C 30.22in /  1023.2hPa Calm     72% 0.00in /  0mm WeatherDisplay:10.37 W/m2
02:24 52.0 °F /  11.1 °C 43.3 °F /  6.3 °C 30.22in /  1023.2hPa Calm     72% 0.00in /  0mm WeatherDisplay:10.37 W/m2
02:29 52.0 °F /  11.1 °C 43.3 °F /  6.3 °C 30.21in /  1022.9hPa Calm     72% 0.00in /  0mm WeatherDisplay:10.37 W/m2
02:34 52.0 °F /  11.1 °C 43.3 °F /  6.3 °C 30.21in /  1022.9hPa Calm     72% 0.00in /  0mm WeatherDisplay:10.37 W/m2
02:39 52.0 °F /  11.1 °C 43.6 °F /  6.4 °C 30.21in /  1022.9hPa Calm     73% 0.00in /  0mm WeatherDisplay:10.37 W/m2
02:44 51.8 °F /  11 °C 43.4 °F /  6.3 °C 30.21in /  1022.9hPa Calm     73% 0.00in /  0mm WeatherDisplay:10.37 W/m2
02:49 51.8 °F /  11 °C 43.4 °F /  6.3 °C 30.21in /  1022.9hPa Calm     73% 0.00in /  0mm WeatherDisplay:10.37 W/m2
02:54 51.8 °F /  11 °C 43.4 °F /  6.3 °C 30.21in /  1022.9hPa Calm     73% 0.00in /  0mm WeatherDisplay:10.37 W/m2
02:59 51.8 °F /  11 °C 43.4 °F /  6.3 °C 30.21in /  1022.9hPa Calm     73% 0.00in /  0mm WeatherDisplay:10.37 W/m2
03:04 51.8 °F /  11 °C 43.4 °F /  6.3 °C 30.21in /  1022.9hPa Calm     73% 0.00in /  0mm WeatherDisplay:10.37 W/m2
03:09 51.6 °F /  10.9 °C 43.2 °F /  6.2 °C 30.21in /  1022.9hPa Calm     73% 0.00in /  0mm WeatherDisplay:10.37 W/m2
03:14 51.6 °F /  10.9 °C 43.2 °F /  6.2 °C 30.21in /  1022.9hPa Calm     73% 0.00in /  0mm WeatherDisplay:10.37 W/m2
03:19 51.6 °F /  10.9 °C 43.2 °F /  6.2 °C 30.21in /  1022.9hPa Calm     73% 0.00in /  0mm WeatherDisplay:10.37 W/m2
03:24 51.6 °F /  10.9 °C 43.6 °F /  6.4 °C 30.21in /  1022.9hPa Calm     74% 0.00in /  0mm WeatherDisplay:10.37 W/m2
03:29 51.6 °F /  10.9 °C 43.6 °F /  6.4 °C 30.21in /  1022.9hPa Calm     74% 0.00in /  0mm WeatherDisplay:10.37 W/m2
03:34 51.3 °F /  10.7 °C 43.6 °F /  6.4 °C 30.21in /  1022.9hPa Calm     75% 0.00in /  0mm WeatherDisplay:10.37 W/m2
03:39 51.3 °F /  10.7 °C 43.6 °F /  6.4 °C 30.21in /  1022.9hPa Calm     75% 0.00in /  0mm WeatherDisplay:10.37 W/m2
03:43 51.3 °F /  10.7 °C 43.6 °F /  6.4 °C 30.21in /  1022.9hPa Calm     75% 0.00in /  0mm WeatherDisplay:10.37 W/m2
03:49 51.1 °F /  10.6 °C 43.8 °F /  6.6 °C 30.21in /  1022.9hPa Calm     76% 0.00in /  0mm WeatherDisplay:10.37 W/m2
03:54 51.1 °F /  10.6 °C 43.8 °F /  6.6 °C 30.21in /  1022.9hPa Calm     76% 0.00in /  0mm WeatherDisplay:10.37 W/m2
03:59 51.1 °F /  10.6 °C 43.8 °F /  6.6 °C 30.21in /  1022.9hPa Calm     76% 0.00in /  0mm WeatherDisplay:10.37 W/m2
04:04 51.1 °F /  10.6 °C 43.8 °F /  6.6 °C 30.21in /  1022.9hPa Calm     76% 0.00in /  0mm WeatherDisplay:10.37 W/m2
04:09 51.1 °F /  10.6 °C 43.8 °F /  6.6 °C 30.21in /  1022.9hPa Calm     76% 0.00in /  0mm WeatherDisplay:10.37 W/m2
04:14 51.1 °F /  10.6 °C 43.8 °F /  6.6 °C 30.21in /  1022.9hPa Calm     76% 0.00in /  0mm WeatherDisplay:10.37 W/m2
04:19 50.9 °F /  10.5 °C 43.3 °F /  6.3 °C 30.21in /  1022.9hPa Calm     75% 0.00in /  0mm WeatherDisplay:10.37 W/m2
04:24 50.9 °F /  10.5 °C 43.3 °F /  6.3 °C 30.21in /  1022.9hPa Calm     75% 0.00in /  0mm WeatherDisplay:10.37 W/m2
04:29 50.9 °F /  10.5 °C 43.6 °F /  6.4 °C 30.21in /  1022.9hPa Calm     76% 0.00in /  0mm WeatherDisplay:10.37 W/m2
04:34 50.9 °F /  10.5 °C 43.3 °F /  6.3 °C 30.21in /  1022.9hPa Calm     75% 0.00in /  0mm WeatherDisplay:10.37 W/m2
04:39 50.9 °F /  10.5 °C 43.3 °F /  6.3 °C 30.21in /  1022.9hPa Calm     75% 0.00in /  0mm WeatherDisplay:10.37 W/m2
04:44 50.7 °F /  10.4 °C 43.4 °F /  6.3 °C 30.21in /  1022.9hPa Calm     76% 0.00in /  0mm WeatherDisplay:10.37 W/m2
04:49 50.7 °F /  10.4 °C 43.4 °F /  6.3 °C 30.21in /  1022.9hPa Calm     76% 0.00in /  0mm WeatherDisplay:10.37 W/m2
04:54 50.5 °F /  10.3 °C 43.2 °F /  6.2 °C 30.21in /  1022.9hPa Calm     76% 0.00in /  0mm WeatherDisplay:10.37 W/m2
04:59 50.5 °F /  10.3 °C 43.2 °F /  6.2 °C 30.21in /  1022.9hPa Calm     76% 0.00in /  0mm WeatherDisplay:10.37 W/m2
05:04 50.5 °F /  10.3 °C 43.2 °F /  6.2 °C 30.21in /  1022.9hPa Calm     76% 0.00in /  0mm WeatherDisplay:10.37 W/m2
05:09 50.5 °F /  10.3 °C 43.2 °F /  6.2 °C 30.21in /  1022.9hPa Calm     76% 0.00in /  0mm WeatherDisplay:10.37 W/m2
05:14 50.5 °F /  10.3 °C 43.2 °F /  6.2 °C 30.21in /  1022.9hPa Calm     76% 0.00in /  0mm WeatherDisplay:10.37 W/m2
05:19 50.5 °F /  10.3 °C 43.2 °F /  6.2 °C 30.20in /  1022.6hPa Calm     76% 0.00in /  0mm WeatherDisplay:10.37 W/m2
05:24 50.5 °F /  10.3 °C 42.9 °F /  6.1 °C 30.20in /  1022.6hPa Calm     75% 0.00in /  0mm WeatherDisplay:10.37 W/m2
05:29 50.5 °F /  10.3 °C 42.9 °F /  6.1 °C 30.20in /  1022.6hPa Calm     75% 0.00in /  0mm WeatherDisplay:10.37 W/m2
05:34 50.5 °F /  10.3 °C 42.9 °F /  6.1 °C 30.20in /  1022.6hPa Calm     75% 0.00in /  0mm WeatherDisplay:10.37 W/m2
05:39 50.5 °F /  10.3 °C 42.9 °F /  6.1 °C 30.20in /  1022.6hPa Calm     75% 0.00in /  0mm WeatherDisplay:10.37 W/m2
05:44 50.5 °F /  10.3 °C 42.9 °F /  6.1 °C 30.20in /  1022.6hPa Calm     75% 0.00in /  0mm WeatherDisplay:10.37 W/m2
05:49 50.5 °F /  10.3 °C 42.9 °F /  6.1 °C 30.20in /  1022.6hPa Calm     75% 0.00in /  0mm WeatherDisplay:10.37 W/m2
05:54 50.5 °F /  10.3 °C 42.9 °F /  6.1 °C 30.20in /  1022.6hPa Calm     75% 0.00in /  0mm WeatherDisplay:10.37 W/m2
05:59 50.5 °F /  10.3 °C 42.9 °F /  6.1 °C 30.20in /  1022.6hPa Calm     75% 0.00in /  0mm WeatherDisplay:10.37 W/m2
06:04 50.5 °F /  10.3 °C 42.9 °F /  6.1 °C 30.20in /  1022.6hPa Calm     75% 0.00in /  0mm WeatherDisplay:10.37 W/m2
06:09 50.5 °F /  10.3 °C 42.9 °F /  6.1 °C 30.20in /  1022.6hPa Calm     75% 0.00in /  0mm WeatherDisplay:10.37 W/m2
06:14 50.7 °F /  10.4 °C 42.7 °F /  5.9 °C 30.20in /  1022.6hPa Calm     74% 0.00in /  0mm WeatherDisplay:10.37 W/m2
06:19 50.7 °F /  10.4 °C 42.7 °F /  5.9 °C 30.20in /  1022.6hPa Calm     74% 0.00in /  0mm WeatherDisplay:10.37 W/m2
06:24 50.7 °F /  10.4 °C 42.7 °F /  5.9 °C 30.20in /  1022.6hPa Calm     74% 0.00in /  0mm WeatherDisplay:10.37 W/m2
06:29 50.7 °F /  10.4 °C 42.7 °F /  5.9 °C 30.20in /  1022.6hPa Calm     74% 0.00in /  0mm WeatherDisplay:10.37 W/m2
06:34 50.7 °F /  10.4 °C 42.7 °F /  5.9 °C 30.20in /  1022.6hPa Calm     74% 0.00in /  0mm WeatherDisplay:10.37 W/m2
06:39 50.7 °F /  10.4 °C 42.7 °F /  5.9 °C 30.20in /  1022.6hPa Calm     74% 0.00in /  0mm WeatherDisplay:10.37 W/m2
06:44 50.7 °F /  10.4 °C 42.7 °F /  5.9 °C 30.20in /  1022.6hPa Calm     74% 0.00in /  0mm WeatherDisplay:10.37 W/m2
06:49 50.9 °F /  10.5 °C 42.9 °F /  6.1 °C 30.20in /  1022.6hPa Calm     74% 0.00in /  0mm WeatherDisplay:10.37 W/m2
06:54 50.9 °F /  10.5 °C 42.9 °F /  6.1 °C 30.20in /  1022.6hPa Calm     74% 0.00in /  0mm WeatherDisplay:10.37 W/m2
06:59 50.9 °F /  10.5 °C 42.9 °F /  6.1 °C 30.20in /  1022.6hPa Calm     74% 0.00in /  0mm WeatherDisplay:10.37 W/m2
07:04 51.1 °F /  10.6 °C 43.1 °F /  6.2 °C 30.20in /  1022.6hPa Calm     74% 0.00in /  0mm WeatherDisplay:10.37 W/m2
07:09 51.3 °F /  10.7 °C 43.3 °F /  6.3 °C 30.20in /  1022.6hPa Calm     74% 0.00in /  0mm WeatherDisplay:10.37 W/m2
07:14 51.4 °F /  10.8 °C 43.4 °F /  6.3 °C 30.20in /  1022.6hPa Calm     74% 0.00in /  0mm WeatherDisplay:10.37 W/m2
07:19 51.4 °F /  10.8 °C 43.4 °F /  6.3 °C 30.20in /  1022.6hPa Calm     74% 0.00in /  0mm WeatherDisplay:10.37 W/m2
07:24 51.6 °F /  10.9 °C 43.6 °F /  6.4 °C 30.20in /  1022.6hPa Calm     74% 0.00in /  0mm WeatherDisplay:10.37 W/m2
07:29 51.8 °F /  11 °C 43.4 °F /  6.3 °C 30.20in /  1022.6hPa Calm     73% 0.00in /  0mm WeatherDisplay:10.37 W/m2
07:34 52.3 °F /  11.3 °C 43.9 °F /  6.6 °C 30.20in /  1022.6hPa ESE 5.8mph /  9.3km/h   73% 0.00in /  0mm WeatherDisplay:10.37 W/m2
07:39 52.7 °F /  11.5 °C 43.9 °F /  6.6 °C 30.20in /  1022.6hPa Calm     72% 0.00in /  0mm WeatherDisplay:10.37 W/m2
07:44 52.9 °F /  11.6 °C 44.1 °F /  6.7 °C 30.20in /  1022.6hPa Calm     72% 0.00in /  0mm WeatherDisplay:10.37 W/m2
07:49 53.2 °F /  11.8 °C 44.0 °F /  6.7 °C 30.20in /  1022.6hPa Calm     71% 0.00in /  0mm WeatherDisplay:10.37 W/m2
07:54 53.6 °F /  12 °C 44.4 °F /  6.9 °C 30.20in /  1022.6hPa Calm     71% 0.00in /  0mm WeatherDisplay:10.37 W/m2
07:59 53.8 °F /  12.1 °C 44.6 °F /  7 °C 30.20in /  1022.6hPa Calm     71% 0.00in /  0mm WeatherDisplay:10.37 W/m2
08:04 54.1 °F /  12.3 °C 44.9 °F /  7.2 °C 30.20in /  1022.6hPa Calm     71% 0.00in /  0mm WeatherDisplay:10.37 W/m2
08:09 54.5 °F /  12.5 °C 44.9 °F /  7.2 °C 30.21in /  1022.9hPa Calm     70% 0.00in /  0mm WeatherDisplay:10.37 W/m2
08:14 54.5 °F /  12.5 °C 45.3 °F /  7.4 °C 30.21in /  1022.9hPa Calm     71% 0.00in /  0mm WeatherDisplay:10.37 W/m2
08:19 54.5 °F /  12.5 °C 45.7 °F /  7.6 °C 30.21in /  1022.9hPa Calm     72% 0.00in /  0mm WeatherDisplay:10.37 W/m2
08:24 54.7 °F /  12.6 °C 46.6 °F /  8.1 °C 30.21in /  1022.9hPa Calm     74% 0.00in /  0mm WeatherDisplay:10.37 W/m2
08:29 54.9 °F /  12.7 °C 46.8 °F /  8.2 °C 30.21in /  1022.9hPa Calm     74% 0.00in /  0mm WeatherDisplay:10.37 W/m2
08:34 55.0 °F /  12.8 °C 46.9 °F /  8.3 °C 30.21in /  1022.9hPa Calm     74% 0.00in /  0mm WeatherDisplay:10.37 W/m2
08:39 55.2 °F /  12.9 °C 47.1 °F /  8.4 °C 30.21in /  1022.9hPa Calm     74% 0.00in /  0mm WeatherDisplay:10.37 W/m2
08:44 55.4 °F /  13 °C 47.6 °F /  8.7 °C 30.21in /  1022.9hPa Calm     75% 0.00in /  0mm WeatherDisplay:10.37 W/m2
08:49 55.9 °F /  13.3 °C 48.8 °F /  9.3 °C 30.21in /  1022.9hPa Calm     77% 0.00in /  0mm WeatherDisplay:10.37 W/m2
08:54 56.3 °F /  13.5 °C 49.5 °F /  9.7 °C 30.20in /  1022.6hPa Calm     78% 0.00in /  0mm WeatherDisplay:10.37 W/m2
08:59 56.5 °F /  13.6 °C 49.7 °F /  9.8 °C 30.20in /  1022.6hPa Calm     78% 0.00in /  0mm WeatherDisplay:10.37 W/m2
09:04 56.8 °F /  13.8 °C 50.7 °F /  10.4 °C 30.20in /  1022.6hPa Calm     80% 0.00in /  0mm WeatherDisplay:10.37 W/m2
09:09 57.2 °F /  14 °C 51.1 °F /  10.6 °C 30.21in /  1022.9hPa Calm     80% 0.00in /  0mm WeatherDisplay:10.37 W/m2
09:14 57.7 °F /  14.3 °C 51.6 °F /  10.9 °C 30.21in /  1022.9hPa Calm     80% 0.00in /  0mm WeatherDisplay:10.37 W/m2
09:19 58.5 °F /  14.7 °C 50.6 °F /  10.3 °C 30.20in /  1022.6hPa Calm     75% 0.00in /  0mm WeatherDisplay:10.37 W/m2
09:24 59.0 °F /  15 °C 50.0 °F /  10 °C 30.20in /  1022.6hPa Calm     72% 0.00in /  0mm WeatherDisplay:10.37 W/m2
09:29 59.5 °F /  15.3 °C 49.3 °F /  9.6 °C 30.20in /  1022.6hPa Calm     69% 0.00in /  0mm WeatherDisplay:10.37 W/m2
09:34 60.3 °F /  15.7 °C 50.1 °F /  10.1 °C 30.20in /  1022.6hPa Calm     69% 0.00in /  0mm WeatherDisplay:10.37 W/m2
09:39 60.8 °F /  16 °C 47.7 °F /  8.7 °C 30.20in /  1022.6hPa Calm     62% 0.00in /  0mm WeatherDisplay:10.37 W/m2
09:44 61.0 °F /  16.1 °C 47.9 °F /  8.8 °C 30.21in /  1022.9hPa Calm     62% 0.00in /  0mm WeatherDisplay:10.37 W/m2
09:49 61.9 °F /  16.6 °C 47.4 °F /  8.6 °C 30.21in /  1022.9hPa Calm     59% 0.00in /  0mm WeatherDisplay:10.37 W/m2
09:54 62.6 °F /  17 °C 49.0 °F /  9.4 °C 30.21in /  1022.9hPa Calm     61% 0.00in /  0mm WeatherDisplay:10.37 W/m2
09:59 63.0 °F /  17.2 °C 49.8 °F /  9.9 °C 30.21in /  1022.9hPa Calm     62% 0.00in /  0mm WeatherDisplay:10.37 W/m2
10:04 63.1 °F /  17.3 °C 49.0 °F /  9.4 °C 30.21in /  1022.9hPa Calm     60% 0.00in /  0mm WeatherDisplay:10.37 W/m2
10:09 64.2 °F /  17.9 °C 49.1 °F /  9.5 °C 30.21in /  1022.9hPa Calm     58% 0.00in /  0mm WeatherDisplay:10.37 W/m2
10:14 65.1 °F /  18.4 °C 50.4 °F /  10.2 °C 30.21in /  1022.9hPa Calm     59% 0.00in /  0mm WeatherDisplay:10.37 W/m2
10:19 66.2 °F /  19 °C 49.1 °F /  9.5 °C 30.21in /  1022.9hPa Calm     54% 0.00in /  0mm WeatherDisplay:10.37 W/m2
10:24 67.3 °F /  19.6 °C 50.6 °F /  10.3 °C 30.21in /  1022.9hPa Calm     55% 0.00in /  0mm WeatherDisplay:10.37 W/m2
10:29 67.6 °F /  19.8 °C 49.3 °F /  9.6 °C 30.22in /  1023.2hPa Calm     52% 0.00in /  0mm WeatherDisplay:10.37 W/m2
10:34 69.1 °F /  20.6 °C 51.8 °F /  11 °C 30.22in /  1023.2hPa Calm     54% 0.00in /  0mm WeatherDisplay:10.37 W/m2
10:39 69.4 °F /  20.8 °C 51.5 °F /  10.8 °C 30.22in /  1023.2hPa Calm     53% 0.00in /  0mm WeatherDisplay:10.37 W/m2
10:44 69.1 °F /  20.6 °C 51.8 °F /  11 °C 30.21in /  1022.9hPa Calm     54% 0.00in /  0mm WeatherDisplay:10.37 W/m2
10:49 69.6 °F /  20.9 °C 51.7 °F /  10.9 °C 30.21in /  1022.9hPa Calm     53% 0.00in /  0mm WeatherDisplay:10.37 W/m2
10:54 68.5 °F /  20.3 °C 51.2 °F /  10.7 °C 30.22in /  1023.2hPa Calm     54% 0.00in /  0mm WeatherDisplay:10.37 W/m2
10:59 68.7 °F /  20.4 °C 50.9 °F /  10.5 °C 30.22in /  1023.2hPa Calm     53% 0.00in /  0mm WeatherDisplay:10.37 W/m2
11:04 70.5 °F /  21.4 °C 52.0 °F /  11.1 °C 30.22in /  1023.2hPa Calm     52% 0.00in /  0mm WeatherDisplay:10.37 W/m2
11:09 70.9 °F /  21.6 °C 52.4 °F /  11.3 °C 30.22in /  1023.2hPa Calm     52% 0.00in /  0mm WeatherDisplay:10.37 W/m2
11:14 70.5 °F /  21.4 °C 52.0 °F /  11.1 °C 30.22in /  1023.2hPa Calm     52% 0.00in /  0mm WeatherDisplay:10.37 W/m2
11:19 70.3 °F /  21.3 °C 52.9 °F /  11.6 °C 30.22in /  1023.2hPa Calm     54% 0.00in /  0mm WeatherDisplay:10.37 W/m2
11:24 69.6 °F /  20.9 °C 52.2 °F /  11.2 °C 30.22in /  1023.2hPa North 2.8mph /  4.5km/h 1.7mph /  2.7km/h 54% 0.00in /  0mm WeatherDisplay:10.37 W/m2
11:29 69.6 °F /  20.9 °C 52.7 °F /  11.5 °C 30.22in /  1023.2hPa Calm     55% 0.00in /  0mm WeatherDisplay:10.37 W/m2
11:34 69.3 °F /  20.7 °C 52.4 °F /  11.3 °C 30.22in /  1023.2hPa North 2.3mph /  3.7km/h 1.4mph /  2.3km/h 55% 0.00in /  0mm WeatherDisplay:10.37 W/m2
11:39 69.4 °F /  20.8 °C 53.0 °F /  11.7 °C 30.22in /  1023.2hPa NNW 2.3mph /  3.7km/h 2.3mph /  3.7km/h 56% 0.00in /  0mm WeatherDisplay:10.37 W/m2
11:44 69.3 °F /  20.7 °C 52.9 °F /  11.6 °C 30.22in /  1023.2hPa West 1.2mph /  1.9km/h 0.3mph /  0.5km/h 56% 0.00in /  0mm WeatherDisplay:10.37 W/m2
11:49 69.3 °F /  20.7 °C 52.9 °F /  11.6 °C 30.22in /  1023.2hPa WNW 1.5mph /  2.4km/h 0.6mph /  1km/h 56% 0.00in /  0mm WeatherDisplay:10.37 W/m2
11:54 69.4 °F /  20.8 °C 53.0 °F /  11.7 °C 30.23in /  1023.6hPa SW 4.6mph /  7.4km/h 3.0mph /  4.8km/h 56% 0.00in /  0mm WeatherDisplay:10.37 W/m2
11:59 69.4 °F /  20.8 °C 53.5 °F /  11.9 °C 30.23in /  1023.6hPa WNW 2.3mph /  3.7km/h 2.8mph /  4.5km/h 57% 0.00in /  0mm WeatherDisplay:10.37 W/m2
12:04 69.4 °F /  20.8 °C 54.0 °F /  12.2 °C 30.23in /  1023.6hPa Calm     58% 0.00in /  0mm WeatherDisplay:10.37 W/m2
12:09 69.4 °F /  20.8 °C 54.0 °F /  12.2 °C 30.22in /  1023.2hPa Calm     58% 0.00in /  0mm WeatherDisplay:10.37 W/m2
12:14 69.4 °F /  20.8 °C 54.0 °F /  12.2 °C 30.22in /  1023.2hPa Calm     58% 0.00in /  0mm WeatherDisplay:10.37 W/m2
12:19 69.3 °F /  20.7 °C 53.9 °F /  12.2 °C 30.22in /  1023.2hPa Calm     58% 0.00in /  0mm WeatherDisplay:10.37 W/m2
12:24 69.6 °F /  20.9 °C 54.2 °F /  12.3 °C 30.22in /  1023.2hPa West 1.2mph /  1.9km/h 0.2mph /  0.3km/h 58% 0.00in /  0mm WeatherDisplay:10.37 W/m2
12:29 69.8 °F /  21 °C 54.4 °F /  12.4 °C 30.22in /  1023.2hPa Calm     58% 0.00in /  0mm WeatherDisplay:10.37 W/m2
12:34 69.8 °F /  21 °C 54.8 °F /  12.7 °C 30.22in /  1023.2hPa West 3.5mph /  5.6km/h 2.8mph /  4.5km/h 59% 0.00in /  0mm WeatherDisplay:10.37 W/m2
12:35 69.8 °F /  21 °C 54.8 °F /  12.7 °C 30.22in /  1023.2hPa West 2.3mph /  3.7km/h   59% 0.00in /  0mm WeatherDisplay:10.37 W/m2
13:24 74.1 °F /  23.4 °C 51.4 °F /  10.8 °C 30.20in /  1022.6hPa Calm     45% 0.00in /  0mm WeatherDisplay:10.37 W/m2
13:29 73.9 °F /  23.3 °C 52.4 °F /  11.3 °C 30.20in /  1022.6hPa Calm     47% 0.00in /  0mm WeatherDisplay:10.37 W/m2
13:30 72.9 °F /  22.7 °C 52.1 °F /  11.2 °C 30.20in /  1022.6hPa Calm     48% 0.00in /  0mm WeatherDisplay:10.37 W/m2
13:49 75.2 °F /  24 °C 53.0 °F /  11.7 °C 30.20in /  1022.6hPa Calm     46% 0.00in /  0mm WeatherDisplay:10.37 W/m2
13:54 76.5 °F /  24.7 °C 53.0 °F /  11.7 °C 30.20in /  1022.6hPa Calm     44% 0.00in /  0mm WeatherDisplay:10.37 W/m2
13:59 77.5 °F /  25.3 °C 53.9 °F /  12.2 °C 30.20in /  1022.6hPa Calm     44% 0.00in /  0mm WeatherDisplay:10.37 W/m2
14:04 74.8 °F /  23.8 °C 53.8 °F /  12.1 °C 30.20in /  1022.6hPa Calm     48% 0.00in /  0mm WeatherDisplay:10.37 W/m2
14:09 77.5 °F /  25.3 °C 54.5 °F /  12.5 °C 30.20in /  1022.6hPa Calm     45% 0.00in /  0mm WeatherDisplay:10.37 W/m2
14:14 77.4 °F /  25.2 °C 54.4 °F /  12.4 °C 30.20in /  1022.6hPa Calm     45% 0.00in /  0mm WeatherDisplay:10.37 W/m2
14:19 79.2 °F /  26.2 °C 54.8 °F /  12.7 °C 30.20in /  1022.6hPa Calm     43% 0.00in /  0mm WeatherDisplay:10.37 W/m2
14:24 78.6 °F /  25.9 °C 54.9 °F /  12.7 °C 30.20in /  1022.6hPa Calm     44% 0.00in /  0mm WeatherDisplay:10.37 W/m2
14:29 78.4 °F /  25.8 °C 54.7 °F /  12.6 °C 30.19in /  1022.2hPa Calm     44% 0.00in /  0mm WeatherDisplay:10.37 W/m2
14:34 79.2 °F /  26.2 °C 54.8 °F /  12.7 °C 30.19in /  1022.2hPa Calm     43% 0.00in /  0mm WeatherDisplay:10.37 W/m2
14:39 77.4 °F /  25.2 °C 55.6 °F /  13.1 °C 30.19in /  1022.2hPa Calm     47% 0.00in /  0mm WeatherDisplay:10.37 W/m2
14:43 78.3 °F /  25.7 °C 54.6 °F /  12.6 °C 30.19in /  1022.2hPa Calm     44% 0.00in /  0mm WeatherDisplay:10.37 W/m2
14:49 77.7 °F /  25.4 °C 54.0 °F /  12.2 °C 30.19in /  1022.2hPa Calm     44% 0.00in /  0mm WeatherDisplay:10.37 W/m2
14:54 80.4 °F /  26.9 °C 55.2 °F /  12.9 °C 30.18in /  1021.9hPa Calm     42% 0.00in /  0mm WeatherDisplay:10.37 W/m2
14:59 77.5 °F /  25.3 °C 55.1 °F /  12.8 °C 30.18in /  1021.9hPa Calm     46% 0.00in /  0mm WeatherDisplay:10.37 W/m2
15:04 78.4 °F /  25.8 °C 55.3 °F /  12.9 °C 30.18in /  1021.9hPa Calm     45% 0.00in /  0mm WeatherDisplay:10.37 W/m2
15:09 75.6 °F /  24.2 °C 53.9 °F /  12.2 °C 30.18in /  1021.9hPa Calm     47% 0.00in /  0mm WeatherDisplay:10.37 W/m2
15:14 78.3 °F /  25.7 °C 54.6 °F /  12.6 °C 30.18in /  1021.9hPa Calm     44% 0.00in /  0mm WeatherDisplay:10.37 W/m2
15:19 78.3 °F /  25.7 °C 52.7 °F /  11.5 °C 30.17in /  1021.6hPa Calm     41% 0.00in /  0mm WeatherDisplay:10.37 W/m2
15:24 77.0 °F /  25 °C 55.2 °F /  12.9 °C 30.17in /  1021.6hPa Calm     47% 0.00in /  0mm WeatherDisplay:10.37 W/m2
15:29 79.5 °F /  26.4 °C 50.2 °F /  10.1 °C 30.16in /  1021.2hPa NE 3.5mph /  5.6km/h   36% 0.00in /  0mm WeatherDisplay:10.37 W/m2
15:34 77.9 °F /  25.5 °C 55.5 °F /  13.1 °C 30.16in /  1021.2hPa Calm     46% 0.00in /  0mm WeatherDisplay:10.37 W/m2
15:39 80.8 °F /  27.1 °C 55.6 °F /  13.1 °C 30.16in /  1021.2hPa Calm     42% 0.00in /  0mm WeatherDisplay:10.37 W/m2
15:44 79.0 °F /  26.1 °C 54.6 °F /  12.6 °C 30.16in /  1021.2hPa Calm     43% 0.00in /  0mm WeatherDisplay:10.37 W/m2
15:49 76.8 °F /  24.9 °C 53.2 °F /  11.8 °C 30.16in /  1021.2hPa Calm     44% 0.00in /  0mm WeatherDisplay:10.37 W/m2
15:54 79.0 °F /  26.1 °C 55.8 °F /  13.2 °C 30.16in /  1021.2hPa Calm     45% 0.00in /  0mm WeatherDisplay:10.37 W/m2
15:59 80.2 °F /  26.8 °C 55.7 °F /  13.2 °C 30.16in /  1021.2hPa Calm     43% 0.00in /  0mm WeatherDisplay:10.37 W/m2
16:04 80.6 °F /  27 °C 56.7 °F /  13.7 °C 30.16in /  1021.2hPa Calm     44% 0.00in /  0mm WeatherDisplay:10.37 W/m2
16:09 80.4 °F /  26.9 °C 56.5 °F /  13.6 °C 30.15in /  1020.9hPa Calm     44% 0.00in /  0mm WeatherDisplay:10.37 W/m2
16:14 78.1 °F /  25.6 °C 56.2 °F /  13.4 °C 30.15in /  1020.9hPa Calm     47% 0.00in /  0mm WeatherDisplay:10.37 W/m2
16:19 78.6 °F /  25.9 °C 56.1 °F /  13.4 °C 30.15in /  1020.9hPa Calm     46% 0.00in /  0mm WeatherDisplay:10.37 W/m2
16:23 77.2 °F /  25.1 °C 56.6 °F /  13.7 °C 30.15in /  1020.9hPa Calm     49% 0.00in /  0mm WeatherDisplay:10.37 W/m2
16:54 73.2 °F /  22.9 °C 55.6 °F /  13.1 °C 30.14in /  1020.5hPa Calm     54% 0.00in /  0mm WeatherDisplay:10.37 W/m2
16:59 74.1 °F /  23.4 °C 56.4 °F /  13.6 °C 30.14in /  1020.5hPa Calm     54% 0.00in /  0mm WeatherDisplay:10.37 W/m2
17:04 74.8 °F /  23.8 °C 56.5 °F /  13.6 °C 30.14in /  1020.5hPa Calm     53% 0.00in /  0mm WeatherDisplay:10.37 W/m2
17:09 74.3 °F /  23.5 °C 56.1 °F /  13.4 °C 30.14in /  1020.5hPa Calm     53% 0.00in /  0mm WeatherDisplay:10.37 W/m2
17:14 74.1 °F /  23.4 °C 55.9 °F /  13.3 °C 30.14in /  1020.5hPa Calm     53% 0.00in /  0mm WeatherDisplay:10.37 W/m2
17:19 73.8 °F /  23.2 °C 55.6 °F /  13.1 °C 30.14in /  1020.5hPa Calm     53% 0.00in /  0mm WeatherDisplay:10.37 W/m2
17:24 72.9 °F /  22.7 °C 55.8 °F /  13.2 °C 30.14in /  1020.5hPa Calm     55% 0.00in /  0mm WeatherDisplay:10.37 W/m2
17:29 72.9 °F /  22.7 °C 55.3 °F /  12.9 °C 30.14in /  1020.5hPa Calm     54% 0.00in /  0mm WeatherDisplay:10.37 W/m2
17:34 72.7 °F /  22.6 °C 55.6 °F /  13.1 °C 30.14in /  1020.5hPa Calm     55% 0.00in /  0mm WeatherDisplay:10.37 W/m2
17:39 72.1 °F /  22.3 °C 55.0 °F /  12.8 °C 30.14in /  1020.5hPa Calm     55% 0.00in /  0mm WeatherDisplay:10.37 W/m2
17:44 72.1 °F /  22.3 °C 55.5 °F /  13.1 °C 30.14in /  1020.5hPa Calm     56% 0.00in /  0mm WeatherDisplay:10.37 W/m2
17:49 72.0 °F /  22.2 °C 55.9 °F /  13.3 °C 30.14in /  1020.5hPa Calm     57% 0.00in /  0mm WeatherDisplay:10.37 W/m2
17:54 71.8 °F /  22.1 °C 55.7 °F /  13.2 °C 30.13in /  1020.2hPa Calm     57% 0.00in /  0mm WeatherDisplay:10.37 W/m2
17:59 70.9 °F /  21.6 °C 55.9 °F /  13.3 °C 30.13in /  1020.2hPa Calm     59% 0.00in /  0mm WeatherDisplay:10.37 W/m2
18:04 70.5 °F /  21.4 °C 55.5 °F /  13.1 °C 30.13in /  1020.2hPa Calm     59% 0.00in /  0mm WeatherDisplay:10.37 W/m2
18:09 70.5 °F /  21.4 °C 55.5 °F /  13.1 °C 30.14in /  1020.5hPa Calm     59% 0.00in /  0mm WeatherDisplay:10.37 W/m2
18:14 70.3 °F /  21.3 °C 54.8 °F /  12.7 °C 30.14in /  1020.5hPa Calm     58% 0.00in /  0mm WeatherDisplay:10.37 W/m2
18:19 70.0 °F /  21.1 °C 55.5 °F /  13.1 °C 30.13in /  1020.2hPa Calm     60% 0.00in /  0mm WeatherDisplay:10.37 W/m2
18:24 69.6 °F /  20.9 °C 55.1 °F /  12.8 °C 30.13in /  1020.2hPa Calm     60% 0.00in /  0mm WeatherDisplay:10.37 W/m2
18:29 69.3 °F /  20.7 °C 55.3 °F /  12.9 °C 30.13in /  1020.2hPa Calm     61% 0.00in /  0mm WeatherDisplay:10.37 W/m2
18:34 69.3 °F /  20.7 °C 55.7 °F /  13.2 °C 30.13in /  1020.2hPa Calm     62% 0.00in /  0mm WeatherDisplay:10.37 W/m2
18:39 68.7 °F /  20.4 °C 55.6 °F /  13.1 °C 30.13in /  1020.2hPa Calm     63% 0.00in /  0mm WeatherDisplay:10.37 W/m2
18:44 68.4 °F /  20.2 °C 55.3 °F /  12.9 °C 30.13in /  1020.2hPa Calm     63% 0.00in /  0mm WeatherDisplay:10.37 W/m2
18:49 67.8 °F /  19.9 °C 55.2 °F /  12.9 °C 30.13in /  1020.2hPa Calm     64% 0.00in /  0mm WeatherDisplay:10.37 W/m2
18:54 67.6 °F /  19.8 °C 55.4 °F /  13 °C 30.12in /  1019.9hPa Calm     65% 0.01in /  0.25mm WeatherDisplay:10.37 W/m2
18:59 67.3 °F /  19.6 °C 55.5 °F /  13.1 °C 30.12in /  1019.9hPa Calm     66% 0.01in /  0.25mm WeatherDisplay:10.37 W/m2
19:04 66.9 °F /  19.4 °C 56.0 °F /  13.3 °C 30.12in /  1019.9hPa Calm     68% 0.01in /  0.25mm WeatherDisplay:10.37 W/m2
19:09 66.4 °F /  19.1 °C 56.3 °F /  13.5 °C 30.12in /  1019.9hPa Calm     70% 0.01in /  0.25mm WeatherDisplay:10.37 W/m2
19:14 66.0 °F /  18.9 °C 56.3 °F /  13.5 °C 30.12in /  1019.9hPa Calm     71% 0.01in /  0.25mm WeatherDisplay:10.37 W/m2
19:19 65.7 °F /  18.7 °C 56.4 °F /  13.6 °C 30.11in /  1019.5hPa Calm     72% 0.01in /  0.25mm WeatherDisplay:10.37 W/m2
19:24 65.3 °F /  18.5 °C 56.0 °F /  13.3 °C 30.11in /  1019.5hPa Calm     72% 0.01in /  0.25mm WeatherDisplay:10.37 W/m2
19:29 64.8 °F /  18.2 °C 56.3 °F /  13.5 °C 30.11in /  1019.5hPa Calm     74% 0.01in /  0.25mm WeatherDisplay:10.37 W/m2
19:34 64.4 °F /  18 °C 56.3 °F /  13.5 °C 30.11in /  1019.5hPa Calm     75% 0.01in /  0.25mm WeatherDisplay:10.37 W/m2
19:39 64.0 °F /  17.8 °C 56.3 °F /  13.5 °C 30.11in /  1019.5hPa Calm     76% 0.01in /  0.25mm WeatherDisplay:10.37 W/m2
19:44 63.9 °F /  17.7 °C 56.2 °F /  13.4 °C 30.11in /  1019.5hPa Calm     76% 0.01in /  0.25mm WeatherDisplay:10.37 W/m2
19:49 63.5 °F /  17.5 °C 56.2 °F /  13.4 °C 30.11in /  1019.5hPa Calm     77% 0.01in /  0.25mm WeatherDisplay:10.37 W/m2
19:54 63.0 °F /  17.2 °C 56.0 °F /  13.3 °C 30.12in /  1019.9hPa Calm     78% 0.00in /  0mm WeatherDisplay:10.37 W/m2
19:59 62.6 °F /  17 °C 56.0 °F /  13.3 °C 30.12in /  1019.9hPa Calm     79% 0.00in /  0mm WeatherDisplay:10.37 W/m2
20:04 62.1 °F /  16.7 °C 55.9 °F /  13.3 °C 30.12in /  1019.9hPa Calm     80% 0.00in /  0mm WeatherDisplay:10.37 W/m2
20:09 61.9 °F /  16.6 °C 55.7 °F /  13.2 °C 30.12in /  1019.9hPa Calm     80% 0.00in /  0mm WeatherDisplay:10.37 W/m2
20:14 61.2 °F /  16.2 °C 55.7 °F /  13.2 °C 30.12in /  1019.9hPa Calm     82% 0.00in /  0mm WeatherDisplay:10.37 W/m2
20:19 60.8 °F /  16 °C 54.9 °F /  12.7 °C 30.11in /  1019.5hPa Calm     81% 0.00in /  0mm WeatherDisplay:10.37 W/m2
20:24 60.4 °F /  15.8 °C 54.5 °F /  12.5 °C 30.11in /  1019.5hPa Calm     81% 0.00in /  0mm WeatherDisplay:10.37 W/m2
20:29 59.9 °F /  15.5 °C 54.1 °F /  12.3 °C 30.12in /  1019.9hPa Calm     81% 0.00in /  0mm WeatherDisplay:10.37 W/m2
20:34 59.7 °F /  15.4 °C 53.9 °F /  12.2 °C 30.12in /  1019.9hPa Calm     81% 0.00in /  0mm WeatherDisplay:10.37 W/m2
20:39 59.5 °F /  15.3 °C 53.7 °F /  12.1 °C 30.12in /  1019.9hPa Calm     81% 0.00in /  0mm WeatherDisplay:10.37 W/m2
20:44 59.2 °F /  15.1 °C 53.4 °F /  11.9 °C 30.12in /  1019.9hPa Calm     81% 0.00in /  0mm WeatherDisplay:10.37 W/m2
20:49 58.8 °F /  14.9 °C 53.0 °F /  11.7 °C 30.12in /  1019.9hPa Calm     81% 0.00in /  0mm WeatherDisplay:10.37 W/m2
20:54 58.5 °F /  14.7 °C 52.7 °F /  11.5 °C 30.12in /  1019.9hPa Calm     81% 0.00in /  0mm WeatherDisplay:10.37 W/m2
20:59 58.3 °F /  14.6 °C 52.5 °F /  11.4 °C 30.12in /  1019.9hPa Calm     81% 0.00in /  0mm WeatherDisplay:10.37 W/m2
21:04 57.9 °F /  14.4 °C 52.1 °F /  11.2 °C 30.12in /  1019.9hPa Calm     81% 0.00in /  0mm WeatherDisplay:10.37 W/m2
21:09 57.7 °F /  14.3 °C 51.9 °F /  11.1 °C 30.13in /  1020.2hPa Calm     81% 0.00in /  0mm WeatherDisplay:10.37 W/m2
21:13 57.4 °F /  14.1 °C 51.6 °F /  10.9 °C 30.13in /  1020.2hPa Calm     81% 0.00in /  0mm WeatherDisplay:10.37 W/m2
21:19 57.2 °F /  14 °C 51.4 °F /  10.8 °C 30.13in /  1020.2hPa Calm     81% 0.00in /  0mm WeatherDisplay:10.37 W/m2
21:24 57.2 °F /  14 °C 51.4 °F /  10.8 °C 30.13in /  1020.2hPa Calm     81% 0.00in /  0mm WeatherDisplay:10.37 W/m2
21:29 57.0 °F /  13.9 °C 51.2 °F /  10.7 °C 30.13in /  1020.2hPa Calm     81% 0.00in /  0mm WeatherDisplay:10.37 W/m2
21:34 56.8 °F /  13.8 °C 51.0 °F /  10.6 °C 30.13in /  1020.2hPa Calm     81% 0.00in /  0mm WeatherDisplay:10.37 W/m2
21:39 56.8 °F /  13.8 °C 51.0 °F /  10.6 °C 30.13in /  1020.2hPa Calm     81% 0.00in /  0mm WeatherDisplay:10.37 W/m2
21:44 56.7 °F /  13.7 °C 50.9 °F /  10.5 °C 30.13in /  1020.2hPa Calm     81% 0.00in /  0mm WeatherDisplay:10.37 W/m2
21:49 56.7 °F /  13.7 °C 51.3 °F /  10.7 °C 30.13in /  1020.2hPa Calm     82% 0.00in /  0mm WeatherDisplay:10.37 W/m2
21:54 56.5 °F /  13.6 °C 51.1 °F /  10.6 °C 30.13in /  1020.2hPa Calm     82% 0.00in /  0mm WeatherDisplay:10.37 W/m2
21:59 56.5 °F /  13.6 °C 50.7 °F /  10.4 °C 30.13in /  1020.2hPa Calm     81% 0.00in /  0mm WeatherDisplay:10.37 W/m2
22:04 56.5 °F /  13.6 °C 50.4 °F /  10.2 °C 30.13in /  1020.2hPa Calm     80% 0.00in /  0mm WeatherDisplay:10.37 W/m2
22:09 56.5 °F /  13.6 °C 50.1 °F /  10.1 °C 30.13in /  1020.2hPa Calm     79% 0.00in /  0mm WeatherDisplay:10.37 W/m2
22:14 56.5 °F /  13.6 °C 49.4 °F /  9.7 °C 30.13in /  1020.2hPa Calm     77% 0.00in /  0mm WeatherDisplay:10.37 W/m2
22:19 56.5 °F /  13.6 °C 49.0 °F /  9.4 °C 30.12in /  1019.9hPa Calm     76% 0.00in /  0mm WeatherDisplay:10.37 W/m2
22:24 56.5 °F /  13.6 °C 49.0 °F /  9.4 °C 30.12in /  1019.9hPa Calm     76% 0.00in /  0mm WeatherDisplay:10.37 W/m2
22:29 56.3 °F /  13.5 °C 48.1 °F /  8.9 °C 30.13in /  1020.2hPa Calm     74% 0.00in /  0mm WeatherDisplay:10.37 W/m2
22:34 56.3 °F /  13.5 °C 48.1 °F /  8.9 °C 30.13in /  1020.2hPa Calm     74% 0.00in /  0mm WeatherDisplay:10.37 W/m2
22:39 56.3 °F /  13.5 °C 47.8 °F /  8.8 °C 30.13in /  1020.2hPa Calm     73% 0.00in /  0mm WeatherDisplay:10.37 W/m2
22:44 56.1 °F /  13.4 °C 46.8 °F /  8.2 °C 30.12in /  1019.9hPa Calm     71% 0.00in /  0mm WeatherDisplay:10.37 W/m2
22:49 55.9 °F /  13.3 °C 46.6 °F /  8.1 °C 30.12in /  1019.9hPa Calm     71% 0.00in /  0mm WeatherDisplay:10.37 W/m2
22:54 55.9 °F /  13.3 °C 46.3 °F /  7.9 °C 30.12in /  1019.9hPa Calm     70% 0.00in /  0mm WeatherDisplay:10.37 W/m2
22:59 55.8 °F /  13.2 °C 45.4 °F /  7.4 °C 30.12in /  1019.9hPa Calm     68% 0.00in /  0mm WeatherDisplay:10.37 W/m2
23:04 55.6 °F /  13.1 °C 44.4 °F /  6.9 °C 30.12in /  1019.9hPa Calm     66% 0.00in /  0mm WeatherDisplay:10.37 W/m2
23:09 55.4 °F /  13 °C 43.4 °F /  6.3 °C 30.12in /  1019.9hPa Calm     64% 0.00in /  0mm WeatherDisplay:10.37 W/m2
23:14 55.4 °F /  13 °C 43.0 °F /  6.1 °C 30.12in /  1019.9hPa Calm     63% 0.00in /  0mm WeatherDisplay:10.37 W/m2
23:19 55.2 °F /  12.9 °C 42.8 °F /  6 °C 30.12in /  1019.9hPa Calm     63% 0.00in /  0mm WeatherDisplay:10.37 W/m2
23:24 55.0 °F /  12.8 °C 42.6 °F /  5.9 °C 30.12in /  1019.9hPa Calm     63% 0.00in /  0mm WeatherDisplay:10.37 W/m2
23:29 55.0 °F /  12.8 °C 42.2 °F /  5.7 °C 30.12in /  1019.9hPa Calm     62% 0.00in /  0mm WeatherDisplay:10.37 W/m2
23:34 54.9 °F /  12.7 °C 42.1 °F /  5.6 °C 30.12in /  1019.9hPa Calm     62% 0.00in /  0mm WeatherDisplay:10.37 W/m2
23:39 54.7 °F /  12.6 °C 41.5 °F /  5.3 °C 30.12in /  1019.9hPa Calm     61% 0.00in /  0mm WeatherDisplay:10.37 W/m2
23:44 54.7 °F /  12.6 °C 41.5 °F /  5.3 °C 30.12in /  1019.9hPa Calm     61% 0.00in /  0mm WeatherDisplay:10.37 W/m2
23:49 54.5 °F /  12.5 °C 41.7 °F /  5.4 °C 30.12in /  1019.9hPa Calm     62% 0.00in /  0mm WeatherDisplay:10.37 W/m2
23:54 54.3 °F /  12.4 °C 41.6 °F /  5.3 °C 30.12in /  1019.9hPa Calm     62% 0.00in /  0mm WeatherDisplay:10.37 W/m2
23:59 54.1 °F /  12.3 °C 41.4 °F /  5.2 °C 30.12in /  1019.9hPa Calm     62% 0.00in /  0mm WeatherDisplay:10.37 W/m2
Cohasset, California, USA
Compliments of Weather Underground - 2.25 mb